Time;durP1;ratioP1;P1;durP2;ratioP2;P2;SDS_P1;SDS_P2;PMS_P1;PMS_P2;Temp;Humidity;BMP_temperature;BMP_pressure;BME280_temperature;BME280_humidity;BME280_pressure;Samples;Min_cycle;Max_cycle;Signal;HPM_P1;HPM_P2
2023/01/14 00:01:43;;;;;;;5.55;1.30;;;7.40;99.90;;;;;;5039290;28;20052;-82
2023/01/14 00:04:08;;;;;;;7.50;1.30;;;7.40;99.90;;;;;;5039390;28;20025;-83
2023/01/14 00:06:37;;;;;;;2.90;1.33;;;7.30;99.90;;;;;;5035178;28;20030;-82
2023/01/14 00:09:05;;;;;;;3.72;1.42;;;7.30;99.90;;;;;;5031000;28;20054;-81
2023/01/14 00:11:46;;;;;;;2.45;1.30;;;7.30;99.90;;;;;;5029662;28;20025;-81
2023/01/14 00:14:17;;;;;;;5.35;1.55;;;7.20;99.90;;;;;;5031529;28;20674;-82
2023/01/14 00:16:44;;;;;;;8.55;1.63;;;7.20;99.90;;;;;;5032282;28;20076;-82
2023/01/14 00:19:10;;;;;;;6.07;1.90;;;7.30;99.90;;;;;;5033291;28;20101;-82
2023/01/14 00:21:36;;;;;;;4.20;1.75;;;7.20;99.90;;;;;;5031591;28;20057;-83
2023/01/14 00:24:02;;;;;;;6.55;2.67;;;7.20;99.90;;;;;;5030549;28;20033;-83
2023/01/14 00:26:28;;;;;;;7.75;2.45;;;7.20;99.90;;;;;;5029945;28;20021;-82
2023/01/14 00:28:54;;;;;;;11.57;2.58;;;7.30;99.90;;;;;;5031951;28;20030;-83
2023/01/14 00:31:22;;;;;;;7.00;2.00;;;7.20;99.90;;;;;;5030699;28;20382;-83
2023/01/14 00:33:48;;;;;;;9.25;2.20;;;7.20;99.90;;;;;;5030767;28;20159;-82
2023/01/14 00:36:18;;;;;;;10.43;2.53;;;7.20;99.90;;;;;;5030710;28;20450;-82
2023/01/14 00:38:44;;;;;;;12.90;2.47;;;7.20;99.90;;;;;;5030546;28;20029;-83
2023/01/14 00:41:15;;;;;;;5.80;2.55;;;7.20;99.90;;;;;;5030571;28;20592;-82
2023/01/14 00:43:44;;;;;;;8.52;2.03;;;7.20;99.90;;;;;;5030929;28;20088;-82
2023/01/14 00:46:15;;;;;;;5.07;2.05;;;7.30;99.90;;;;;;5028057;28;20028;-82
2023/01/14 00:48:42;;;;;;;7.78;2.08;;;7.30;99.90;;;;;;5031603;28;20029;-83
2023/01/14 00:51:08;;;;;;;4.22;1.85;;;7.20;99.90;;;;;;5030434;28;20118;-84
2023/01/14 00:53:35;;;;;;;5.38;2.00;;;7.20;99.90;;;;;;5030270;28;20120;-84
2023/01/14 00:56:00;;;;;;;7.38;2.03;;;7.30;99.90;;;;;;5031061;28;20033;-82
2023/01/14 00:58:26;;;;;;;10.88;2.53;;;7.20;99.90;;;;;;5035452;28;20079;-82
2023/01/14 01:00:52;;;;;;;7.75;2.28;;;7.20;99.90;;;;;;5034696;28;20025;-82
2023/01/14 01:03:19;;;;;;;9.40;2.60;;;7.30;99.90;;;;;;5034362;28;20079;-81
2023/01/14 01:05:45;;;;;;;9.15;2.17;;;7.30;99.90;;;;;;5035869;28;20033;-82
2023/01/14 01:08:16;;;;;;;8.77;2.67;;;7.30;99.90;;;;;;5035477;28;20025;-83
2023/01/14 01:10:48;;;;;;;6.95;2.63;;;7.30;99.90;;;;;;5034309;28;20023;-82
2023/01/14 01:13:14;;;;;;;7.43;2.08;;;7.30;99.90;;;;;;5034705;28;20101;-82
2023/01/14 01:15:40;;;;;;;4.82;2.35;;;7.40;99.90;;;;;;5033312;28;20120;-82
2023/01/14 01:18:08;;;;;;;9.23;2.75;;;7.40;99.90;;;;;;5033635;28;20108;-82
2023/01/14 01:20:34;;;;;;;5.97;2.17;;;7.50;99.90;;;;;;5035317;28;20022;-83
2023/01/14 01:23:00;;;;;;;14.88;2.70;;;7.40;99.90;;;;;;5033581;28;20026;-82
2023/01/14 01:25:26;;;;;;;9.48;2.70;;;7.40;99.90;;;;;;5034405;28;20163;-82
2023/01/14 01:27:54;;;;;;;11.75;2.28;;;7.40;99.90;;;;;;5034316;28;20055;-82
2023/01/14 01:30:20;;;;;;;7.45;2.97;;;7.40;99.90;;;;;;5034434;28;20026;-82
2023/01/14 01:32:46;;;;;;;8.65;2.88;;;7.40;99.90;;;;;;5033567;28;20029;-82
2023/01/14 01:35:12;;;;;;;10.13;2.33;;;7.30;99.90;;;;;;5034462;28;20025;-83
2023/01/14 01:37:37;;;;;;;12.00;2.35;;;7.30;99.90;;;;;;5035419;28;20064;-82
2023/01/14 01:40:06;;;;;;;8.98;2.47;;;7.20;99.90;;;;;;5034145;28;20486;-82
2023/01/14 01:42:35;;;;;;;9.30;3.05;;;7.20;99.90;;;;;;5033763;28;20494;-83
2023/01/14 01:45:28;;;;;;;3.88;2.10;;;7.30;99.90;;;;;;5034182;28;20028;-83
2023/01/14 01:48:20;;;;;;;10.25;2.50;;;7.20;99.90;;;;;;5034883;28;20075;-83
2023/01/14 01:50:51;;;;;;;6.15;2.75;;;7.30;99.90;;;;;;5034651;28;20045;-82
2023/01/14 01:53:17;;;;;;;6.97;3.00;;;7.20;99.90;;;;;;5033242;28;20036;-82
2023/01/14 01:55:48;;;;;;;11.77;2.28;;;7.30;99.90;;;;;;5033799;28;20479;-83
2023/01/14 01:58:14;;;;;;;12.50;3.63;;;7.30;99.90;;;;;;5033809;28;20029;-83
2023/01/14 02:00:40;;;;;;;9.55;2.40;;;7.30;99.90;;;;;;5033582;28;20031;-82
2023/01/14 02:03:15;;;;;;;8.10;3.45;;;7.40;99.90;;;;;;5033740;28;20033;-83
2023/01/14 02:05:41;;;;;;;7.88;2.15;;;7.40;99.90;;;;;;5033653;28;20022;-83
2023/01/14 02:08:07;;;;;;;12.57;2.45;;;7.50;99.90;;;;;;5033351;28;20027;-83
2023/01/14 02:11:00;;;;;;;11.13;3.53;;;7.50;99.90;;;;;;5033572;28;20683;-83
2023/01/14 02:13:57;;;;;;;11.32;2.35;;;7.50;99.90;;;;;;5023493;28;20039;-83
2023/01/14 02:16:29;;;;;;;7.53;2.38;;;7.50;99.90;;;;;;5028626;28;20554;-82
2023/01/14 02:19:13;;;;;;;12.27;2.85;;;7.50;99.90;;;;;;5032945;28;20517;-83
2023/01/14 02:21:55;;;;;;;7.05;2.03;;;7.50;99.90;;;;;;5034708;28;20751;-82
2023/01/14 02:24:44;;;;;;;9.32;2.45;;;7.50;99.90;;;;;;5033737;28;20037;-82
2023/01/14 02:27:34;;;;;;;5.68;2.35;;;7.50;99.90;;;;;;5033118;28;20067;-82
2023/01/14 02:30:26;;;;;;;9.82;2.13;;;7.50;99.90;;;;;;5034122;28;20564;-83
2023/01/14 02:33:10;;;;;;;11.35;2.53;;;7.50;99.90;;;;;;5000968;28;20346;-83
2023/01/14 02:35:41;;;;;;;11.13;2.28;;;7.50;99.90;;;;;;5041145;28;20037;-83
2023/01/14 02:38:29;;;;;;;10.23;2.20;;;7.50;99.90;;;;;;5031993;28;20029;-82
2023/01/14 02:44:29;;;;;;;17.25;3.20;;;7.50;99.90;;;;;;4998591;28;20597;-83
2023/01/14 02:47:00;;;;;;;8.55;2.60;;;7.50;99.90;;;;;;5026484;28;20033;-82
2023/01/14 02:49:29;;;;;;;11.88;2.25;;;7.50;99.90;;;;;;5032288;28;20021;-82
2023/01/14 02:51:56;;;;;;;9.80;2.17;;;7.50;99.90;;;;;;5030433;28;20024;-83
2023/01/14 02:54:22;;;;;;;10.00;3.13;;;7.50;99.90;;;;;;5031346;28;20104;-82
2023/01/14 02:56:49;;;;;;;7.97;2.33;;;7.50;99.90;;;;;;5032571;28;20112;-83
2023/01/14 02:59:36;;;;;;;11.00;2.10;;;7.50;99.90;;;;;;5031513;28;20034;-83
2023/01/14 03:02:25;;;;;;;5.28;2.08;;;7.40;99.90;;;;;;5026539;28;20371;-83
2023/01/14 03:05:29;;;;;;;9.75;2.28;;;7.40;99.90;;;;;;5027834;28;20021;-82
2023/01/14 03:07:58;;;;;;;10.07;3.22;;;7.40;99.90;;;;;;5018128;28;20394;-82
2023/01/14 03:10:34;;;;;;;9.35;2.35;;;7.30;99.90;;;;;;5031729;28;20021;-83
2023/01/14 03:13:16;;;;;;;10.52;1.92;;;7.30;99.90;;;;;;5030294;28;20127;-83
2023/01/14 03:15:57;;;;;;;12.75;3.10;;;7.20;99.90;;;;;;5026018;28;20029;-83
2023/01/14 03:18:41;;;;;;;7.20;2.30;;;7.20;99.90;;;;;;5028387;28;20032;-83
2023/01/14 03:21:22;;;;;;;15.27;3.13;;;7.20;99.90;;;;;;5027157;28;20021;-83
2023/01/14 03:24:00;;;;;;;12.50;2.22;;;7.20;99.90;;;;;;5029283;28;20468;-83
2023/01/14 03:26:30;;;;;;;6.10;2.50;;;7.20;99.90;;;;;;5012151;28;20496;-83
2023/01/14 03:29:00;;;;;;;10.23;2.80;;;7.10;99.90;;;;;;5031165;28;20078;-81
2023/01/14 03:31:28;;;;;;;8.50;2.60;;;7.10;99.90;;;;;;5029273;28;20117;-82
2023/01/14 03:34:20;;;;;;;10.48;2.25;;;7.10;99.90;;;;;;5032100;28;20044;-82
2023/01/14 03:36:49;;;;;;;9.85;2.90;;;7.10;99.90;;;;;;5040781;28;20040;-82
2023/01/14 03:39:18;;;;;;;18.27;3.13;;;7.10;99.90;;;;;;5032212;28;20041;-83
2023/01/14 03:44:35;;;;;;;10.00;2.60;;;7.10;99.90;;;;;;5031767;28;20082;-82
2023/01/14 03:47:01;;;;;;;7.97;2.80;;;7.10;99.90;;;;;;5030894;28;20017;-83
2023/01/14 03:49:26;;;;;;;10.25;2.42;;;7.10;99.90;;;;;;5031132;28;20025;-83
2023/01/14 03:52:09;;;;;;;13.77;2.90;;;7.10;99.90;;;;;;5030228;28;20087;-83
2023/01/14 03:54:59;;;;;;;15.02;3.28;;;7.10;99.90;;;;;;5030568;28;20033;-83
2023/01/14 03:57:42;;;;;;;8.55;2.85;;;7.20;99.90;;;;;;5030201;28;20052;-83
2023/01/14 04:00:19;;;;;;;11.98;2.78;;;7.20;99.90;;;;;;5030211;28;20025;-82
2023/01/14 04:02:46;;;;;;;10.43;2.85;;;7.20;99.90;;;;;;5028617;28;20441;-83
2023/01/14 04:05:12;;;;;;;13.90;3.15;;;7.20;99.90;;;;;;5030882;28;20075;-83
2023/01/14 04:07:38;;;;;;;10.02;3.08;;;7.20;99.90;;;;;;5029482;28;20207;-83
2023/01/14 04:10:04;;;;;;;14.73;2.67;;;7.20;99.90;;;;;;5029029;28;20024;-83
2023/01/14 04:12:30;;;;;;;14.93;2.72;;;7.30;99.90;;;;;;5029135;28;20033;-83
2023/01/14 04:17:39;;;;;;;13.98;3.53;;;7.30;99.90;;;;;;5029229;28;20422;-83
2023/01/14 04:20:06;;;;;;;13.88;3.10;;;7.40;99.90;;;;;;5028966;28;20029;-83
2023/01/14 04:22:32;;;;;;;13.52;2.80;;;7.30;99.90;;;;;;5029579;28;20055;-82
2023/01/14 04:24:58;;;;;;;14.23;3.42;;;7.30;99.90;;;;;;5027290;28;20033;-82
2023/01/14 04:27:24;;;;;;;11.38;3.30;;;7.30;99.90;;;;;;5031229;28;20659;-82
2023/01/14 04:29:49;;;;;;;11.05;2.88;;;7.40;99.90;;;;;;5031888;28;20017;-82
2023/01/14 04:32:15;;;;;;;16.63;3.33;;;7.40;99.90;;;;;;5031393;28;20032;-82
2023/01/14 04:34:40;;;;;;;12.98;3.92;;;7.40;99.90;;;;;;5032539;28;20521;-82
2023/01/14 04:37:07;;;;;;;21.83;3.92;;;7.40;99.90;;;;;;5031541;28;20075;-83
2023/01/14 04:39:33;;;;;;;19.88;4.50;;;7.40;99.90;;;;;;5033054;28;20025;-82
2023/01/14 04:44:44;;;;;;;16.10;3.53;;;7.30;99.90;;;;;;5033283;28;20517;-82
2023/01/14 04:47:10;;;;;;;13.50;3.80;;;7.30;99.90;;;;;;5031302;28;20029;-82
2023/01/14 04:49:35;;;;;;;14.40;3.95;;;7.30;99.90;;;;;;5031834;28;20041;-83
2023/01/14 04:52:01;;;;;;;16.92;5.65;;;7.30;99.90;;;;;;5032658;28;20068;-82
2023/01/14 04:54:26;;;;;;;13.32;4.50;;;7.20;99.90;;;;;;5031735;28;20043;-83
2023/01/14 04:56:52;;;;;;;15.52;5.10;;;7.30;99.90;;;;;;5031487;28;20116;-82
2023/01/14 04:59:17;;;;;;;12.45;5.80;;;7.30;99.90;;;;;;5031415;28;20479;-82
2023/01/14 05:01:43;;;;;;;19.58;6.82;;;7.30;99.90;;;;;;5030562;28;20105;-83
2023/01/14 05:04:09;;;;;;;14.45;5.18;;;7.30;99.90;;;;;;5030962;28;20467;-82
2023/01/14 05:06:34;;;;;;;21.02;5.80;;;7.30;99.90;;;;;;5030124;28;20034;-83
2023/01/14 05:09:00;;;;;;;18.30;6.13;;;7.30;99.90;;;;;;5030849;28;20030;-82
2023/01/14 05:11:25;;;;;;;25.05;5.85;;;7.30;99.90;;;;;;5030886;28;20021;-82
2023/01/14 05:13:51;;;;;;;26.15;5.78;;;7.30;99.90;;;;;;5031382;28;20052;-83
2023/01/14 05:16:16;;;;;;;19.23;5.50;;;7.30;99.90;;;;;;5030764;28;20021;-82
2023/01/14 05:18:42;;;;;;;21.75;5.65;;;7.40;99.90;;;;;;5030666;28;20493;-83
2023/01/14 05:21:08;;;;;;;13.15;5.38;;;7.40;99.90;;;;;;5030930;28;20029;-83
2023/01/14 05:23:33;;;;;;;22.30;5.70;;;7.40;99.90;;;;;;5031686;28;20124;-83
2023/01/14 05:25:59;;;;;;;11.95;5.03;;;7.40;99.90;;;;;;5030578;28;20028;-82
2023/01/14 05:28:24;;;;;;;31.48;6.03;;;7.40;99.90;;;;;;5030935;28;20021;-83
2023/01/14 05:30:50;;;;;;;20.75;5.63;;;7.40;99.90;;;;;;5030599;28;20017;-82
2023/01/14 05:33:16;;;;;;;15.82;4.70;;;7.40;99.90;;;;;;5030322;28;20079;-82
2023/01/14 05:35:42;;;;;;;22.48;5.53;;;7.30;99.90;;;;;;5029577;28;20029;-83
2023/01/14 05:38:09;;;;;;;15.43;4.68;;;7.30;99.90;;;;;;5031763;28;20026;-83
2023/01/14 05:40:35;;;;;;;21.35;5.35;;;7.20;99.90;;;;;;5030781;28;20056;-82
2023/01/14 05:45:48;;;;;;;16.20;6.00;;;7.10;99.90;;;;;;5031984;28;20032;-78
2023/01/14 05:48:16;;;;;;;24.13;5.35;;;7.00;99.90;;;;;;5030280;28;20122;-77
2023/01/14 05:50:41;;;;;;;24.33;5.45;;;7.00;99.90;;;;;;5031298;28;20241;-78
2023/01/14 05:53:07;;;;;;;20.40;5.00;;;6.90;99.90;;;;;;5031035;28;20025;-79
2023/01/14 05:55:35;;;;;;;17.05;5.57;;;7.00;99.90;;;;;;5031428;28;20029;-78
2023/01/14 05:58:04;;;;;;;24.10;6.55;;;6.90;99.90;;;;;;5031440;28;20033;-79
2023/01/14 06:08:46;;;;;;;18.20;5.93;;;6.80;99.90;;;;;;5031315;28;20075;-79
2023/01/14 06:11:11;;;;;;;21.42;6.07;;;6.80;99.90;;;;;;5029783;28;20057;-78
2023/01/14 06:13:37;;;;;;;22.17;6.05;;;6.80;99.90;;;;;;5029467;28;20025;-79
2023/01/14 06:16:06;;;;;;;24.27;5.90;;;6.80;99.90;;;;;;5029614;28;20068;-79
2023/01/14 06:18:37;;;;;;;24.38;5.53;;;6.90;99.90;;;;;;5034896;28;20083;-79
2023/01/14 06:21:05;;;;;;;22.13;5.30;;;6.90;99.90;;;;;;5030526;28;20025;-79
2023/01/14 06:23:31;;;;;;;21.80;6.90;;;6.90;99.90;;;;;;5029124;28;20087;-79
2023/01/14 06:25:57;;;;;;;21.50;5.63;;;6.90;99.90;;;;;;5029836;28;20481;-79
2023/01/14 06:28:22;;;;;;;16.30;4.78;;;7.00;99.90;;;;;;5029706;28;20028;-79
2023/01/14 06:30:48;;;;;;;18.50;4.80;;;7.00;99.90;;;;;;5030738;28;20389;-79
2023/01/14 06:33:14;;;;;;;26.02;6.18;;;7.10;99.90;;;;;;5029341;28;20025;-79
2023/01/14 06:35:42;;;;;;;16.48;5.70;;;7.10;99.90;;;;;;5029700;28;20096;-79
2023/01/14 06:38:08;;;;;;;22.20;5.18;;;7.10;99.90;;;;;;5029519;28;20040;-78
2023/01/14 06:40:35;;;;;;;18.60;6.30;;;7.00;99.90;;;;;;5029592;28;20107;-79
2023/01/14 06:43:01;;;;;;;21.38;5.38;;;7.00;99.90;;;;;;5028662;28;20593;-79
2023/01/14 06:45:26;;;;;;;12.85;5.25;;;6.90;99.90;;;;;;5028941;28;20121;-80
2023/01/14 06:47:53;;;;;;;17.80;5.55;;;6.90;99.90;;;;;;5028894;28;20037;-80
2023/01/14 06:50:19;;;;;;;18.30;5.75;;;6.90;99.90;;;;;;5045419;28;20051;-80
2023/01/14 06:52:45;;;;;;;15.13;5.22;;;6.80;99.90;;;;;;5029893;28;20065;-80
2023/01/14 06:55:11;;;;;;;15.75;5.25;;;6.80;99.90;;;;;;5028007;28;20454;-79
2023/01/14 06:57:37;;;;;;;17.48;5.65;;;6.80;99.90;;;;;;5045657;28;20112;-79
2023/01/14 07:00:03;;;;;;;19.15;5.75;;;6.80;99.90;;;;;;5029927;28;20076;-79
2023/01/14 07:02:29;;;;;;;23.52;5.65;;;6.70;99.90;;;;;;5036173;28;20025;-79
2023/01/14 07:04:54;;;;;;;23.52;5.75;;;6.60;99.90;;;;;;5029459;28;20025;-80
2023/01/14 07:07:21;;;;;;;23.42;6.82;;;6.80;99.90;;;;;;5028466;28;20021;-78
2023/01/14 07:09:46;;;;;;;20.08;5.38;;;6.70;99.90;;;;;;5028545;28;20029;-78
2023/01/14 07:12:12;;;;;;;16.15;5.15;;;6.70;99.90;;;;;;5028331;28;20021;-78
2023/01/14 07:14:37;;;;;;;24.00;6.43;;;6.70;99.90;;;;;;5028800;28;20064;-78
2023/01/14 07:17:03;;;;;;;25.00;5.43;;;6.70;99.90;;;;;;5028430;28;20112;-77
2023/01/14 07:19:29;;;;;;;21.30;5.47;;;6.60;99.90;;;;;;5028517;28;20049;-77
2023/01/14 07:21:55;;;;;;;17.95;6.53;;;6.60;99.90;;;;;;5028544;28;20094;-78
2023/01/14 07:24:20;;;;;;;22.35;5.20;;;6.60;99.90;;;;;;5028498;28;20034;-77
2023/01/14 07:26:46;;;;;;;22.27;4.95;;;6.70;99.90;;;;;;5030182;28;20040;-79
2023/01/14 07:29:11;;;;;;;19.65;4.75;;;6.70;99.90;;;;;;5032945;28;20044;-79
2023/01/14 07:31:37;;;;;;;13.45;4.68;;;6.70;99.90;;;;;;5031668;28;20057;-78
2023/01/14 07:34:03;;;;;;;23.88;5.55;;;6.60;99.90;;;;;;5030888;28;20075;-78
2023/01/14 07:36:28;;;;;;;14.10;4.60;;;6.60;99.90;;;;;;5027623;28;20026;-78
2023/01/14 07:38:54;;;;;;;21.60;6.15;;;6.60;99.90;;;;;;5030545;28;20499;-79
2023/01/14 07:41:20;;;;;;;23.00;4.90;;;6.60;99.90;;;;;;5031461;28;20467;-77
2023/01/14 07:43:47;;;;;;;25.73;4.57;;;6.60;99.90;;;;;;5026863;28;20040;-77
2023/01/14 07:46:12;;;;;;;25.35;4.75;;;6.50;99.90;;;;;;5027701;28;20017;-77
2023/01/14 07:48:38;;;;;;;20.52;5.25;;;6.50;99.90;;;;;;5029179;28;20025;-77
2023/01/14 07:51:05;;;;;;;21.55;4.80;;;6.50;99.90;;;;;;5028784;28;20036;-77
2023/01/14 07:53:31;;;;;;;19.48;4.68;;;6.40;99.90;;;;;;5027176;28;20364;-78
2023/01/14 07:56:00;;;;;;;25.77;5.47;;;6.40;99.90;;;;;;5028149;28;20045;-77
2023/01/14 07:58:26;;;;;;;22.15;4.10;;;6.40;99.90;;;;;;5029250;28;20029;-77
2023/01/14 08:00:52;;;;;;;14.13;4.20;;;6.50;99.90;;;;;;5027949;28;20405;-77
2023/01/14 08:03:18;;;;;;;27.30;3.78;;;6.50;99.90;;;;;;5029214;28;20036;-78
2023/01/14 08:05:44;;;;;;;15.57;4.25;;;6.50;99.90;;;;;;5026590;28;20052;-77
2023/01/14 08:08:09;;;;;;;15.20;4.13;;;6.50;99.90;;;;;;5028010;28;20474;-77
2023/01/14 08:10:35;;;;;;;14.45;4.18;;;6.60;99.90;;;;;;5029353;28;20474;-77
2023/01/14 08:13:01;;;;;;;12.35;3.20;;;6.60;99.90;;;;;;5027526;28;20091;-79
2023/01/14 08:15:26;;;;;;;17.38;3.90;;;6.70;99.90;;;;;;5027709;28;20026;-80
2023/01/14 08:17:54;;;;;;;14.93;3.38;;;6.80;99.90;;;;;;5027720;28;20045;-75
2023/01/14 08:20:22;;;;;;;15.82;3.88;;;6.90;99.90;;;;;;5028249;28;20121;-76
2023/01/14 08:22:51;;;;;;;12.05;2.95;;;6.90;99.90;;;;;;5034328;28;20067;-76
2023/01/14 08:25:16;;;;;;;14.25;3.53;;;7.00;99.90;;;;;;5038738;28;20020;-76
2023/01/14 08:27:42;;;;;;;20.40;3.58;;;7.10;99.90;;;;;;5026823;28;20022;-76
2023/01/14 08:30:08;;;;;;;17.52;3.72;;;7.10;99.90;;;;;;5028359;28;20514;-76
2023/01/14 08:32:33;;;;;;;14.40;3.60;;;7.20;99.90;;;;;;5035879;28;20095;-76
2023/01/14 08:34:59;;;;;;;13.75;3.63;;;7.30;99.90;;;;;;5031644;28;20498;-80
2023/01/14 08:37:25;;;;;;;10.32;3.40;;;7.30;99.90;;;;;;5039985;28;20024;-81
2023/01/14 08:39:50;;;;;;;18.42;3.50;;;7.40;99.90;;;;;;5031382;28;20030;-80
2023/01/14 08:42:16;;;;;;;22.45;3.53;;;7.40;99.90;;;;;;5031718;28;20057;-80
2023/01/14 08:44:41;;;;;;;15.57;3.55;;;7.30;99.90;;;;;;5034719;28;20049;-80
2023/01/14 08:47:07;;;;;;;9.75;3.05;;;7.40;99.90;;;;;;5031081;28;20091;-80
2023/01/14 08:49:33;;;;;;;14.65;3.22;;;7.50;99.90;;;;;;5036012;28;20107;-80
2023/01/14 08:51:59;;;;;;;16.35;3.80;;;7.40;99.90;;;;;;5032318;28;20021;-80
2023/01/14 08:54:24;;;;;;;14.98;3.80;;;7.40;99.90;;;;;;5032227;28;20033;-80
2023/01/14 08:56:50;;;;;;;13.93;3.33;;;7.30;99.90;;;;;;5040160;28;20557;-80
2023/01/14 08:59:16;;;;;;;15.95;3.92;;;7.30;99.90;;;;;;5031485;28;20032;-80
2023/01/14 09:01:41;;;;;;;13.75;2.97;;;7.40;99.90;;;;;;5041527;28;20446;-80
2023/01/14 09:04:07;;;;;;;16.70;3.40;;;7.30;99.90;;;;;;5037728;28;20083;-80
2023/01/14 09:17:04;;;;;;;21.75;3.50;;;7.30;99.90;;;;;;5050603;28;20124;-80
2023/01/14 09:17:31;;;;;;;14.13;3.80;;;7.30;99.90;;;;;;5050850;28;20123;-79
2023/01/14 09:19:59;;;;;;;22.60;5.43;;;7.30;99.90;;;;;;5038584;28;20052;-79
2023/01/14 09:22:27;;;;;;;16.95;2.97;;;7.30;99.90;;;;;;5026128;28;20276;-80
2023/01/14 09:24:53;;;;;;;24.63;4.32;;;7.30;99.90;;;;;;5030477;28;20022;-79
2023/01/14 09:27:19;;;;;;;12.77;2.90;;;7.20;99.90;;;;;;5029476;28;20164;-80
2023/01/14 09:29:45;;;;;;;14.00;3.20;;;7.30;99.90;;;;;;5025710;28;20177;-80
2023/01/14 09:32:12;;;;;;;16.27;3.42;;;7.30;99.90;;;;;;5010663;28;20108;-79
2023/01/14 09:34:47;;;;;;;14.60;3.63;;;7.40;99.90;;;;;;5010822;28;20026;-79
2023/01/14 09:37:13;;;;;;;17.08;3.90;;;7.40;99.90;;;;;;5011089;28;20032;-80
2023/01/14 09:39:39;;;;;;;14.63;3.30;;;7.40;99.90;;;;;;5011018;28;20033;-80
2023/01/14 09:42:10;;;;;;;17.05;3.20;;;7.50;99.90;;;;;;5010811;28;20022;-80
2023/01/14 09:44:35;;;;;;;10.95;3.47;;;7.60;99.90;;;;;;5012611;28;20030;-80
2023/01/14 09:47:01;;;;;;;17.10;2.70;;;7.60;99.90;;;;;;5012342;28;20109;-80
2023/01/14 09:49:28;;;;;;;12.65;3.25;;;7.60;99.90;;;;;;5012781;28;20018;-80
2023/01/14 09:52:14;;;;;;;16.55;3.88;;;7.70;99.90;;;;;;5029901;28;20375;-80
2023/01/14 09:55:09;;;;;;;12.85;3.25;;;7.70;99.90;;;;;;5030416;28;20017;-81
2023/01/14 09:57:54;;;;;;;16.17;3.78;;;7.80;99.90;;;;;;5030819;28;20025;-80
2023/01/14 10:00:37;;;;;;;22.27;3.78;;;7.90;99.90;;;;;;5030677;28;20017;-80
2023/01/14 10:03:19;;;;;;;19.40;3.55;;;7.80;99.90;;;;;;5031363;28;20022;-80
2023/01/14 10:06:02;;;;;;;9.85;3.00;;;7.90;99.90;;;;;;5033354;28;20437;-80
2023/01/14 10:08:33;;;;;;;21.30;3.80;;;7.90;99.90;;;;;;5041372;28;20032;-80
2023/01/14 10:11:01;;;;;;;13.27;3.15;;;7.90;99.90;;;;;;5040670;28;20017;-80
2023/01/14 10:13:41;;;;;;;10.18;3.13;;;8.10;99.90;;;;;;5039341;28;20030;-80
2023/01/14 10:16:16;;;;;;;16.15;3.67;;;8.00;99.90;;;;;;5041830;28;20036;-81
2023/01/14 10:18:49;;;;;;;13.45;2.75;;;7.80;99.90;;;;;;5042663;28;20034;-80
2023/01/14 10:21:39;;;;;;;12.50;3.08;;;8.00;99.90;;;;;;5041569;28;20072;-79
2023/01/14 10:24:07;;;;;;;17.02;3.90;;;7.90;99.90;;;;;;5013679;28;20029;-78
2023/01/14 12:06:23;;;;;;;22.42;4.68;;;7.00;99.90;;;;;;5104862;27;20828;-43
2023/01/14 12:09:00;;;;;;;17.95;4.18;;;6.80;99.90;;;;;;5105795;28;20043;-41
2023/01/14 12:11:32;;;;;;;29.40;10.68;;;6.70;99.90;;;;;;5104982;28;20047;-42
2023/01/14 12:16:52;;;;;;;23.23;4.13;;;6.70;99.90;;;;;;5098576;28;20102;-41
2023/01/14 12:19:27;;;;;;;12.80;3.40;;;6.60;99.90;;;;;;5106910;28;20020;-42
2023/01/14 12:22:17;;;;;;;19.00;4.47;;;6.60;99.90;;;;;;5106688;28;20024;-42
2023/01/14 12:25:05;;;;;;;21.20;4.82;;;6.50;99.90;;;;;;5105749;28;20437;-43
2023/01/14 12:27:57;;;;;;;19.25;4.25;;;6.50;99.90;;;;;;5104832;28;20020;-42
2023/01/14 12:30:37;;;;;;;17.05;4.28;;;6.50;99.90;;;;;;5104578;28;20649;-42
2023/01/14 12:33:09;;;;;;;26.77;5.03;;;6.50;99.90;;;;;;5106391;28;20032;-41
2023/01/14 12:35:57;;;;;;;27.08;4.82;;;6.50;99.90;;;;;;5102899;28;20032;-42
2023/01/14 12:47:03;;;;;;;28.80;5.47;;;6.40;99.90;;;;;;5106798;28;20067;-41
2023/01/14 12:49:31;;;;;;;20.88;4.55;;;6.30;99.90;;;;;;5106570;28;20052;-41
2023/01/14 12:51:57;;;;;;;22.55;4.20;;;6.30;99.90;;;;;;5106308;28;20024;-42
2023/01/14 12:54:27;;;;;;;15.93;4.50;;;6.30;99.90;;;;;;5106219;28;20033;-41
2023/01/14 12:56:56;;;;;;;23.23;5.70;;;6.30;99.90;;;;;;5103784;28;20027;-41
2023/01/14 12:59:29;;;;;;;26.40;4.22;;;6.30;99.90;;;;;;5106320;28;20038;-43
2023/01/14 13:02:06;;;;;;;26.23;4.72;;;6.30;99.90;;;;;;5106356;28;20366;-43
2023/01/14 13:05:09;;;;;;;22.92;5.38;;;6.30;99.90;;;;;;5105052;28;20046;-42
2023/01/14 13:07:50;;;;;;;26.67;5.35;;;6.30;99.90;;;;;;5085357;28;20028;-42
2023/01/14 13:10:30;;;;;;;;;;;6.30;99.90;;;;;;5090155;28;20028;-41
2023/01/14 13:12:55;;;;;;;22.42;4.90;;;6.30;99.90;;;;;;5089511;28;19950;-43
2023/01/14 13:15:29;;;;;;;15.32;4.88;;;6.30;99.90;;;;;;5091571;28;20048;-41
2023/01/14 13:17:57;;;;;;;27.85;5.22;;;6.30;99.90;;;;;;5092410;28;20039;-41
2023/01/14 13:20:29;;;;;;;29.25;7.18;;;6.30;99.90;;;;;;5092161;28;20339;-43
2023/01/14 13:22:56;;;;;;;25.25;5.28;;;6.40;99.90;;;;;;5091834;28;20078;-41
2023/01/14 13:25:35;;;;;;;24.90;5.38;;;6.40;99.90;;;;;;5091665;28;20020;-42
2023/01/14 13:28:12;;;;;;;28.38;5.80;;;6.30;99.90;;;;;;5089222;28;20632;-41
2023/01/14 13:30:44;;;;;;;16.25;4.70;;;6.30;99.90;;;;;;5087491;28;20043;-42
2023/01/14 13:33:20;;;;;;;21.55;5.57;;;6.20;99.90;;;;;;5091658;28;20074;-42
2023/01/14 13:36:10;;;;;;;15.80;5.03;;;6.30;99.90;;;;;;5091540;28;20020;-42
2023/01/14 13:39:00;;;;;;;23.08;5.50;;;6.30;99.90;;;;;;5092464;28;20754;-42
2023/01/14 13:41:38;;;;;;;28.85;6.07;;;6.20;99.90;;;;;;5081736;28;20044;-42
2023/01/14 13:44:03;;;;;;;26.63;6.15;;;6.30;99.90;;;;;;5091893;28;20035;-41
2023/01/14 13:46:34;;;;;;;25.02;5.45;;;6.20;99.90;;;;;;5091309;28;20024;-42
2023/01/14 13:49:03;;;;;;;29.17;5.50;;;6.20;99.90;;;;;;5092019;28;20039;-42
2023/01/14 13:51:42;;;;;;;28.83;5.68;;;6.20;99.90;;;;;;5092127;28;20466;-42
2023/01/14 13:54:10;;;;;;;34.25;12.05;;;6.30;99.90;;;;;;5090836;28;20020;-43
2023/01/14 13:56:42;;;;;;;31.20;6.75;;;6.20;99.90;;;;;;5091607;28;20025;-41
2023/01/14 13:59:25;;;;;;;13.27;5.13;;;6.10;99.90;;;;;;5091699;28;20047;-42
2023/01/14 14:01:51;;;;;;;25.83;5.63;;;6.20;99.90;;;;;;5091425;28;20020;-42
2023/01/14 14:04:54;;;;;;;24.05;5.45;;;6.20;99.90;;;;;;5090872;28;20532;-42
2023/01/14 14:07:44;;;;;;;30.95;6.05;;;6.20;99.90;;;;;;5091481;28;20020;-42
2023/01/14 14:10:16;;;;;;;35.58;6.25;;;6.10;99.90;;;;;;5091718;28;20047;-42
2023/01/14 14:15:37;;;;;;;28.48;6.13;;;6.10;99.90;;;;;;5090753;28;20493;-45
2023/01/14 14:18:05;;;;;;;23.00;5.45;;;6.10;99.90;;;;;;5090469;28;20020;-43
2023/01/14 14:20:42;;;;;;;31.60;5.93;;;6.20;99.90;;;;;;5091432;28;20680;-45
2023/01/14 14:23:24;;;;;;;28.00;6.80;;;6.20;99.90;;;;;;5091503;28;20399;-43
2023/01/14 14:25:51;;;;;;;24.00;5.55;;;6.30;99.90;;;;;;5090981;28;20024;-45
2023/01/14 14:28:23;;;;;;;18.42;4.78;;;6.10;99.90;;;;;;5090575;28;20467;-42
2023/01/14 14:31:13;;;;;;;21.65;5.32;;;6.20;99.90;;;;;;5091022;28;20068;-42
2023/01/14 14:33:42;;;;;;;23.57;5.27;;;6.20;99.90;;;;;;5090132;28;20080;-42
2023/01/14 14:36:17;;;;;;;17.85;4.88;;;6.20;99.90;;;;;;5090879;28;20020;-42
2023/01/14 14:38:49;;;;;;;22.13;5.75;;;6.20;99.90;;;;;;5091101;28;20476;-41
2023/01/14 14:41:18;;;;;;;25.42;4.35;;;6.20;99.90;;;;;;5089857;28;20020;-41
2023/01/14 14:43:55;;;;;;;17.20;4.32;;;6.30;99.90;;;;;;5090556;28;20039;-41
2023/01/14 14:46:25;;;;;;;15.88;3.72;;;6.30;99.90;;;;;;5090486;28;20076;-43
2023/01/14 14:48:51;;;;;;;10.68;3.70;;;6.30;99.90;;;;;;5090717;28;20019;-42
2023/01/14 14:51:29;;;;;;;13.30;3.75;;;6.30;99.90;;;;;;5090347;28;20021;-42
2023/01/14 14:53:56;;;;;;;16.98;3.90;;;6.30;99.90;;;;;;5090626;28;20420;-43
2023/01/14 14:56:26;;;;;;;16.67;3.70;;;6.30;99.90;;;;;;5088987;28;20020;-43
2023/01/14 14:58:55;;;;;;;15.52;3.88;;;6.30;99.90;;;;;;5089189;28;20020;-45
2023/01/14 15:01:28;;;;;;;11.23;4.40;;;6.20;99.90;;;;;;5090207;28;20069;-44
2023/01/14 15:03:56;;;;;;;13.52;3.13;;;6.20;99.90;;;;;;5090722;28;20489;-43
2023/01/14 15:06:23;;;;;;;9.60;3.15;;;6.30;99.90;;;;;;5089870;28;20028;-45
2023/01/14 15:08:59;;;;;;;17.25;4.13;;;6.20;99.90;;;;;;5089170;28;20028;-45
2023/01/14 15:11:35;;;;;;;9.20;2.90;;;6.20;99.90;;;;;;5090103;28;20028;-45
2023/01/14 15:14:02;;;;;;;18.17;4.47;;;6.30;99.90;;;;;;5090028;28;20032;-42
2023/01/14 15:16:34;;;;;;;14.50;3.50;;;6.20;99.90;;;;;;5089439;28;20050;-43
2023/01/14 15:19:00;;;;;;;7.88;3.33;;;6.20;99.90;;;;;;5090636;28;20138;-44
2023/01/14 15:21:33;;;;;;;8.80;3.42;;;6.20;99.90;;;;;;5089965;28;20020;-43
2023/01/14 15:24:02;;;;;;;6.95;3.55;;;6.20;99.90;;;;;;5090219;28;20016;-42
2023/01/14 15:26:35;;;;;;;7.43;3.20;;;6.20;99.90;;;;;;5085790;28;20032;-41
2023/01/14 15:29:01;;;;;;;12.88;3.38;;;6.20;99.90;;;;;;5084790;28;20417;-42
2023/01/14 15:31:33;;;;;;;12.43;3.25;;;6.30;99.90;;;;;;5090369;28;20085;-44